Pilot Rock, Oregon
Current Conditions -  °F | °C
As of 11:53 AM on Thursday 29 Jan 2015 (Local Time) from KPDT Reporting Station
Overcast Overcast  
Wind Chill:   Ceiling: 600
Heat Index:   Visibility: 10mi
Dew Point:   Wind: 3mph
Humidity: 89%   Direction: 330°NNW
Pressure: 30.43"   Gusts: NA
Location:  45.48°N, 118.83°W
Report Text: KPDT 291953Z 33003KT 10SM OVC006 02/00 A3043 RMK AO2 SLP310 T00170000
Loading
Personal Weather Stations






























Interactive Weather Map New forecast layout! Learn more

10-Day Weather Forecast

Advertisements
Track Severe Weather on mobile